sensor_id;sensor_type;location;lat;lon;timestamp;P1;durP1;ratioP1;P2;durP2;ratioP2
4563;SDS011;2294;51.818;8.484;2023-12-07T00:01:37;31.93;;;17.67;;
4563;SDS011;2294;51.818;8.484;2023-12-07T00:04:04;38.13;;;19.40;;
4563;SDS011;2294;51.818;8.484;2023-12-07T00:06:31;32.50;;;16.30;;
4563;SDS011;2294;51.818;8.484;2023-12-07T00:08:59;33.07;;;17.40;;
4563;SDS011;2294;51.818;8.484;2023-12-07T00:11:26;33.53;;;17.07;;
4563;SDS011;2294;51.818;8.484;2023-12-07T00:13:55;31.13;;;16.87;;
4563;SDS011;2294;51.818;8.484;2023-12-07T00:16:22;30.07;;;16.70;;
4563;SDS011;2294;51.818;8.484;2023-12-07T00:18:49;29.33;;;16.30;;
4563;SDS011;2294;51.818;8.484;2023-12-07T00:21:16;30.20;;;16.30;;
4563;SDS011;2294;51.818;8.484;2023-12-07T00:23:43;35.50;;;18.20;;
4563;SDS011;2294;51.818;8.484;2023-12-07T00:26:11;30.03;;;16.97;;
4563;SDS011;2294;51.818;8.484;2023-12-07T00:28:38;32.53;;;16.63;;
4563;SDS011;2294;51.818;8.484;2023-12-07T00:31:06;32.20;;;17.40;;
4563;SDS011;2294;51.818;8.484;2023-12-07T00:33:33;31.90;;;17.77;;
4563;SDS011;2294;51.818;8.484;2023-12-07T00:36:01;33.13;;;18.33;;
4563;SDS011;2294;51.818;8.484;2023-12-07T00:38:28;29.40;;;16.97;;
4563;SDS011;2294;51.818;8.484;2023-12-07T00:40:57;29.30;;;16.20;;
4563;SDS011;2294;51.818;8.484;2023-12-07T00:43:24;30.20;;;17.50;;
4563;SDS011;2294;51.818;8.484;2023-12-07T00:45:51;31.33;;;16.37;;
4563;SDS011;2294;51.818;8.484;2023-12-07T00:48:20;33.13;;;17.07;;
4563;SDS011;2294;51.818;8.484;2023-12-07T00:50:47;34.17;;;17.63;;
4563;SDS011;2294;51.818;8.484;2023-12-07T00:53:14;32.70;;;17.80;;
4563;SDS011;2294;51.818;8.484;2023-12-07T00:55:42;28.67;;;16.03;;
4563;SDS011;2294;51.818;8.484;2023-12-07T00:58:09;35.67;;;19.20;;
4563;SDS011;2294;51.818;8.484;2023-12-07T01:00:36;30.37;;;17.47;;
4563;SDS011;2294;51.818;8.484;2023-12-07T01:03:03;30.70;;;18.50;;
4563;SDS011;2294;51.818;8.484;2023-12-07T01:05:32;36.60;;;17.70;;
4563;SDS011;2294;51.818;8.484;2023-12-07T01:07:59;40.37;;;19.10;;
4563;SDS011;2294;51.818;8.484;2023-12-07T01:10:26;31.47;;;17.50;;
4563;SDS011;2294;51.818;8.484;2023-12-07T01:12:53;30.83;;;16.70;;
4563;SDS011;2294;51.818;8.484;2023-12-07T01:15:20;25.80;;;15.07;;
4563;SDS011;2294;51.818;8.484;2023-12-07T01:17:48;34.97;;;17.97;;
4563;SDS011;2294;51.818;8.484;2023-12-07T01:20:15;30.57;;;17.17;;
4563;SDS011;2294;51.818;8.484;2023-12-07T01:22:43;26.87;;;15.40;;
4563;SDS011;2294;51.818;8.484;2023-12-07T01:25:11;30.50;;;16.63;;
4563;SDS011;2294;51.818;8.484;2023-12-07T01:27:41;30.90;;;17.27;;
4563;SDS011;2294;51.818;8.484;2023-12-07T01:30:09;29.37;;;17.37;;
4563;SDS011;2294;51.818;8.484;2023-12-07T01:32:36;28.70;;;14.90;;
4563;SDS011;2294;51.818;8.484;2023-12-07T01:35:04;31.73;;;17.03;;
4563;SDS011;2294;51.818;8.484;2023-12-07T01:37:31;32.60;;;16.83;;
4563;SDS011;2294;51.818;8.484;2023-12-07T01:39:59;31.93;;;16.60;;
4563;SDS011;2294;51.818;8.484;2023-12-07T01:42:30;30.43;;;16.87;;
4563;SDS011;2294;51.818;8.484;2023-12-07T01:44:57;30.27;;;15.80;;
4563;SDS011;2294;51.818;8.484;2023-12-07T01:47:25;27.73;;;15.57;;
4563;SDS011;2294;51.818;8.484;2023-12-07T01:49:52;31.30;;;15.83;;
4563;SDS011;2294;51.818;8.484;2023-12-07T01:52:19;29.80;;;16.00;;
4563;SDS011;2294;51.818;8.484;2023-12-07T01:54:48;29.60;;;17.27;;
4563;SDS011;2294;51.818;8.484;2023-12-07T01:57:17;27.07;;;16.47;;
4563;SDS011;2294;51.818;8.484;2023-12-07T01:59:44;24.93;;;14.40;;
4563;SDS011;2294;51.818;8.484;2023-12-07T02:02:12;29.20;;;16.47;;
4563;SDS011;2294;51.818;8.484;2023-12-07T02:04:39;29.63;;;15.40;;
4563;SDS011;2294;51.818;8.484;2023-12-07T02:07:06;26.27;;;15.60;;
4563;SDS011;2294;51.818;8.484;2023-12-07T02:09:34;27.60;;;15.70;;
4563;SDS011;2294;51.818;8.484;2023-12-07T02:12:01;24.87;;;14.90;;
4563;SDS011;2294;51.818;8.484;2023-12-07T02:14:29;28.23;;;15.00;;
4563;SDS011;2294;51.818;8.484;2023-12-07T02:16:57;24.37;;;14.40;;
4563;SDS011;2294;51.818;8.484;2023-12-07T02:19:35;28.27;;;15.50;;
4563;SDS011;2294;51.818;8.484;2023-12-07T02:22:06;26.73;;;14.03;;
4563;SDS011;2294;51.818;8.484;2023-12-07T02:24:36;26.77;;;15.10;;
4563;SDS011;2294;51.818;8.484;2023-12-07T02:27:06;25.00;;;13.93;;
4563;SDS011;2294;51.818;8.484;2023-12-07T02:29:33;24.83;;;14.50;;
4563;SDS011;2294;51.818;8.484;2023-12-07T02:32:00;29.17;;;15.10;;
4563;SDS011;2294;51.818;8.484;2023-12-07T02:34:27;30.20;;;15.10;;
4563;SDS011;2294;51.818;8.484;2023-12-07T02:36:54;28.27;;;14.70;;
4563;SDS011;2294;51.818;8.484;2023-12-07T02:39:24;26.87;;;14.10;;
4563;SDS011;2294;51.818;8.484;2023-12-07T02:41:51;28.13;;;14.57;;
4563;SDS011;2294;51.818;8.484;2023-12-07T02:44:20;28.00;;;15.73;;
4563;SDS011;2294;51.818;8.484;2023-12-07T02:46:48;26.13;;;15.50;;
4563;SDS011;2294;51.818;8.484;2023-12-07T02:49:15;31.23;;;15.90;;
4563;SDS011;2294;51.818;8.484;2023-12-07T02:51:42;26.07;;;13.57;;
4563;SDS011;2294;51.818;8.484;2023-12-07T02:54:09;25.87;;;15.07;;
4563;SDS011;2294;51.818;8.484;2023-12-07T02:56:37;25.57;;;13.73;;
4563;SDS011;2294;51.818;8.484;2023-12-07T02:59:04;31.20;;;16.90;;
4563;SDS011;2294;51.818;8.484;2023-12-07T03:01:32;26.53;;;14.77;;
4563;SDS011;2294;51.818;8.484;2023-12-07T03:03:59;27.00;;;14.37;;
4563;SDS011;2294;51.818;8.484;2023-12-07T03:06:27;28.57;;;16.60;;
4563;SDS011;2294;51.818;8.484;2023-12-07T03:08:54;27.40;;;16.03;;
4563;SDS011;2294;51.818;8.484;2023-12-07T03:11:21;22.10;;;13.67;;
4563;SDS011;2294;51.818;8.484;2023-12-07T03:13:48;25.57;;;14.57;;
4563;SDS011;2294;51.818;8.484;2023-12-07T03:16:15;24.50;;;13.50;;
4563;SDS011;2294;51.818;8.484;2023-12-07T03:18:44;26.87;;;14.67;;
4563;SDS011;2294;51.818;8.484;2023-12-07T03:21:11;25.70;;;14.30;;
4563;SDS011;2294;51.818;8.484;2023-12-07T03:23:38;24.97;;;14.93;;
4563;SDS011;2294;51.818;8.484;2023-12-07T03:26:05;24.40;;;15.00;;
4563;SDS011;2294;51.818;8.484;2023-12-07T03:28:32;24.07;;;15.07;;
4563;SDS011;2294;51.818;8.484;2023-12-07T03:30:59;23.87;;;14.40;;
4563;SDS011;2294;51.818;8.484;2023-12-07T03:33:27;21.63;;;13.47;;
4563;SDS011;2294;51.818;8.484;2023-12-07T03:35:55;26.97;;;14.77;;
4563;SDS011;2294;51.818;8.484;2023-12-07T03:38:22;31.80;;;14.63;;
4563;SDS011;2294;51.818;8.484;2023-12-07T03:40:49;28.93;;;15.60;;
4563;SDS011;2294;51.818;8.484;2023-12-07T03:43:17;27.67;;;14.37;;
4563;SDS011;2294;51.818;8.484;2023-12-07T03:45:45;21.73;;;13.20;;
4563;SDS011;2294;51.818;8.484;2023-12-07T03:48:12;29.13;;;15.10;;
4563;SDS011;2294;51.818;8.484;2023-12-07T03:50:39;29.40;;;15.93;;
4563;SDS011;2294;51.818;8.484;2023-12-07T03:53:07;24.40;;;13.70;;
4563;SDS011;2294;51.818;8.484;2023-12-07T03:55:35;26.27;;;15.23;;
4563;SDS011;2294;51.818;8.484;2023-12-07T03:58:02;20.83;;;13.37;;
4563;SDS011;2294;51.818;8.484;2023-12-07T04:00:30;29.20;;;15.23;;
4563;SDS011;2294;51.818;8.484;2023-12-07T04:02:57;22.53;;;12.97;;
4563;SDS011;2294;51.818;8.484;2023-12-07T04:05:25;25.07;;;13.70;;
4563;SDS011;2294;51.818;8.484;2023-12-07T04:07:52;18.77;;;11.43;;
4563;SDS011;2294;51.818;8.484;2023-12-07T04:10:21;24.20;;;12.90;;
4563;SDS011;2294;51.818;8.484;2023-12-07T04:12:48;25.63;;;13.37;;
4563;SDS011;2294;51.818;8.484;2023-12-07T04:15:17;27.73;;;14.23;;
4563;SDS011;2294;51.818;8.484;2023-12-07T04:17:44;17.97;;;11.60;;
4563;SDS011;2294;51.818;8.484;2023-12-07T04:20:12;23.47;;;12.60;;
4563;SDS011;2294;51.818;8.484;2023-12-07T04:22:39;22.37;;;12.80;;
4563;SDS011;2294;51.818;8.484;2023-12-07T04:25:06;24.27;;;14.60;;
4563;SDS011;2294;51.818;8.484;2023-12-07T04:27:35;26.83;;;13.77;;
4563;SDS011;2294;51.818;8.484;2023-12-07T04:30:03;23.43;;;11.97;;
4563;SDS011;2294;51.818;8.484;2023-12-07T04:32:30;23.57;;;14.67;;
4563;SDS011;2294;51.818;8.484;2023-12-07T04:34:57;26.77;;;14.10;;
4563;SDS011;2294;51.818;8.484;2023-12-07T04:37:24;22.13;;;12.47;;
4563;SDS011;2294;51.818;8.484;2023-12-07T04:39:51;20.83;;;12.70;;
4563;SDS011;2294;51.818;8.484;2023-12-07T04:42:18;27.03;;;14.30;;
4563;SDS011;2294;51.818;8.484;2023-12-07T04:44:47;23.40;;;13.20;;
4563;SDS011;2294;51.818;8.484;2023-12-07T04:47:14;22.97;;;10.53;;
4563;SDS011;2294;51.818;8.484;2023-12-07T04:49:41;20.17;;;12.17;;
4563;SDS011;2294;51.818;8.484;2023-12-07T04:52:08;23.40;;;12.00;;
4563;SDS011;2294;51.818;8.484;2023-12-07T04:54:36;23.00;;;13.20;;
4563;SDS011;2294;51.818;8.484;2023-12-07T04:57:03;20.47;;;12.30;;
4563;SDS011;2294;51.818;8.484;2023-12-07T04:59:30;19.27;;;11.00;;
4563;SDS011;2294;51.818;8.484;2023-12-07T05:01:59;28.73;;;13.43;;
4563;SDS011;2294;51.818;8.484;2023-12-07T05:04:27;23.90;;;14.40;;
4563;SDS011;2294;51.818;8.484;2023-12-07T05:06:54;26.27;;;15.40;;
4563;SDS011;2294;51.818;8.484;2023-12-07T05:09:21;21.90;;;12.30;;
4563;SDS011;2294;51.818;8.484;2023-12-07T05:11:48;27.90;;;14.90;;
4563;SDS011;2294;51.818;8.484;2023-12-07T05:14:16;25.87;;;13.70;;
4563;SDS011;2294;51.818;8.484;2023-12-07T05:16:43;25.93;;;14.73;;
4563;SDS011;2294;51.818;8.484;2023-12-07T05:19:12;31.30;;;14.07;;
4563;SDS011;2294;51.818;8.484;2023-12-07T05:21:39;37.07;;;16.97;;
4563;SDS011;2294;51.818;8.484;2023-12-07T05:24:06;27.77;;;15.07;;
4563;SDS011;2294;51.818;8.484;2023-12-07T05:26:33;28.57;;;14.57;;
4563;SDS011;2294;51.818;8.484;2023-12-07T05:29:01;35.00;;;17.97;;
4563;SDS011;2294;51.818;8.484;2023-12-07T05:31:29;34.77;;;16.57;;
4563;SDS011;2294;51.818;8.484;2023-12-07T05:33:56;42.40;;;17.17;;
4563;SDS011;2294;51.818;8.484;2023-12-07T05:36:24;44.70;;;19.23;;
4563;SDS011;2294;51.818;8.484;2023-12-07T05:38:52;41.90;;;16.60;;
4563;SDS011;2294;51.818;8.484;2023-12-07T05:41:19;40.43;;;17.90;;
4563;SDS011;2294;51.818;8.484;2023-12-07T05:43:46;34.57;;;16.00;;
4563;SDS011;2294;51.818;8.484;2023-12-07T05:46:14;35.73;;;17.07;;
4563;SDS011;2294;51.818;8.484;2023-12-07T05:48:41;32.90;;;16.83;;
4563;SDS011;2294;51.818;8.484;2023-12-07T05:51:11;39.33;;;17.43;;
4563;SDS011;2294;51.818;8.484;2023-12-07T05:53:39;35.03;;;17.53;;
4563;SDS011;2294;51.818;8.484;2023-12-07T05:56:07;39.13;;;17.80;;
4563;SDS011;2294;51.818;8.484;2023-12-07T05:58:34;40.10;;;18.93;;
4563;SDS011;2294;51.818;8.484;2023-12-07T06:01:01;42.40;;;17.37;;
4563;SDS011;2294;51.818;8.484;2023-12-07T06:03:29;38.50;;;16.30;;
4563;SDS011;2294;51.818;8.484;2023-12-07T06:05:57;39.70;;;16.53;;
4563;SDS011;2294;51.818;8.484;2023-12-07T06:08:24;42.37;;;18.10;;
4563;SDS011;2294;51.818;8.484;2023-12-07T06:10:53;39.17;;;17.40;;
4563;SDS011;2294;51.818;8.484;2023-12-07T06:13:20;38.50;;;17.17;;
4563;SDS011;2294;51.818;8.484;2023-12-07T06:15:47;27.77;;;16.17;;
4563;SDS011;2294;51.818;8.484;2023-12-07T06:18:14;43.00;;;18.47;;
4563;SDS011;2294;51.818;8.484;2023-12-07T06:20:41;47.60;;;18.87;;
4563;SDS011;2294;51.818;8.484;2023-12-07T06:23:08;38.70;;;17.13;;
4563;SDS011;2294;51.818;8.484;2023-12-07T06:25:37;33.83;;;14.90;;
4563;SDS011;2294;51.818;8.484;2023-12-07T06:28:07;36.17;;;16.40;;
4563;SDS011;2294;51.818;8.484;2023-12-07T06:30:34;50.47;;;23.27;;
4563;SDS011;2294;51.818;8.484;2023-12-07T06:33:02;35.27;;;17.70;;
4563;SDS011;2294;51.818;8.484;2023-12-07T06:35:29;41.20;;;19.53;;
4563;SDS011;2294;51.818;8.484;2023-12-07T06:37:56;40.67;;;18.80;;
4563;SDS011;2294;51.818;8.484;2023-12-07T06:40:23;36.90;;;17.67;;
4563;SDS011;2294;51.818;8.484;2023-12-07T06:42:50;32.97;;;17.60;;
4563;SDS011;2294;51.818;8.484;2023-12-07T06:45:19;41.50;;;17.77;;
4563;SDS011;2294;51.818;8.484;2023-12-07T06:47:46;32.93;;;15.87;;
4563;SDS011;2294;51.818;8.484;2023-12-07T06:50:13;35.20;;;17.07;;
4563;SDS011;2294;51.818;8.484;2023-12-07T06:52:41;32.87;;;16.90;;
4563;SDS011;2294;51.818;8.484;2023-12-07T06:55:09;43.37;;;18.70;;
4563;SDS011;2294;51.818;8.484;2023-12-07T06:57:36;42.20;;;18.40;;
4563;SDS011;2294;51.818;8.484;2023-12-07T07:00:04;37.87;;;18.17;;
4563;SDS011;2294;51.818;8.484;2023-12-07T07:02:36;41.27;;;17.87;;
4563;SDS011;2294;51.818;8.484;2023-12-07T07:05:05;40.27;;;18.47;;
4563;SDS011;2294;51.818;8.484;2023-12-07T07:07:32;46.90;;;18.73;;
4563;SDS011;2294;51.818;8.484;2023-12-07T07:09:59;45.17;;;19.10;;
4563;SDS011;2294;51.818;8.484;2023-12-07T07:12:27;37.10;;;18.43;;
4563;SDS011;2294;51.818;8.484;2023-12-07T07:14:55;52.17;;;23.83;;
4563;SDS011;2294;51.818;8.484;2023-12-07T07:17:22;43.27;;;18.50;;
4563;SDS011;2294;51.818;8.484;2023-12-07T07:19:51;42.73;;;18.37;;
4563;SDS011;2294;51.818;8.484;2023-12-07T07:22:19;37.57;;;15.83;;
4563;SDS011;2294;51.818;8.484;2023-12-07T07:24:47;47.50;;;23.00;;
4563;SDS011;2294;51.818;8.484;2023-12-07T07:27:14;43.20;;;19.20;;
4563;SDS011;2294;51.818;8.484;2023-12-07T07:29:41;40.50;;;18.60;;
4563;SDS011;2294;51.818;8.484;2023-12-07T07:32:08;40.17;;;19.70;;
4563;SDS011;2294;51.818;8.484;2023-12-07T07:34:35;40.70;;;18.00;;
4563;SDS011;2294;51.818;8.484;2023-12-07T07:37:05;41.87;;;18.40;;
4563;SDS011;2294;51.818;8.484;2023-12-07T07:39:33;36.57;;;16.43;;
4563;SDS011;2294;51.818;8.484;2023-12-07T07:42:00;37.97;;;17.70;;
4563;SDS011;2294;51.818;8.484;2023-12-07T07:44:27;42.17;;;17.17;;
4563;SDS011;2294;51.818;8.484;2023-12-07T07:46:55;40.73;;;19.03;;
4563;SDS011;2294;51.818;8.484;2023-12-07T07:49:22;37.53;;;16.03;;
4563;SDS011;2294;51.818;8.484;2023-12-07T07:51:49;41.00;;;18.47;;
4563;SDS011;2294;51.818;8.484;2023-12-07T07:54:18;42.27;;;18.57;;
4563;SDS011;2294;51.818;8.484;2023-12-07T07:56:45;42.60;;;16.80;;
4563;SDS011;2294;51.818;8.484;2023-12-07T07:59:12;44.97;;;17.87;;
4563;SDS011;2294;51.818;8.484;2023-12-07T08:01:40;44.30;;;17.83;;
4563;SDS011;2294;51.818;8.484;2023-12-07T08:04:07;32.67;;;16.50;;
4563;SDS011;2294;51.818;8.484;2023-12-07T08:06:35;41.13;;;18.17;;
4563;SDS011;2294;51.818;8.484;2023-12-07T08:09:02;44.23;;;18.03;;
4563;SDS011;2294;51.818;8.484;2023-12-07T08:11:31;46.90;;;17.90;;
4563;SDS011;2294;51.818;8.484;2023-12-07T08:13:58;39.70;;;17.47;;
4563;SDS011;2294;51.818;8.484;2023-12-07T08:16:25;39.63;;;16.40;;
4563;SDS011;2294;51.818;8.484;2023-12-07T08:18:53;36.60;;;17.37;;
4563;SDS011;2294;51.818;8.484;2023-12-07T08:21:20;44.53;;;19.10;;
4563;SDS011;2294;51.818;8.484;2023-12-07T08:23:47;36.13;;;17.57;;
4563;SDS011;2294;51.818;8.484;2023-12-07T08:26:14;41.80;;;18.97;;
4563;SDS011;2294;51.818;8.484;2023-12-07T08:28:43;35.83;;;16.50;;
4563;SDS011;2294;51.818;8.484;2023-12-07T08:31:11;48.13;;;19.30;;
4563;SDS011;2294;51.818;8.484;2023-12-07T08:33:39;37.97;;;16.10;;
4563;SDS011;2294;51.818;8.484;2023-12-07T08:36:06;39.67;;;17.97;;
4563;SDS011;2294;51.818;8.484;2023-12-07T08:38:33;31.07;;;15.23;;
4563;SDS011;2294;51.818;8.484;2023-12-07T08:41:00;43.20;;;16.47;;
4563;SDS011;2294;51.818;8.484;2023-12-07T08:43:28;44.13;;;19.27;;
4563;SDS011;2294;51.818;8.484;2023-12-07T08:45:57;37.30;;;17.00;;
4563;SDS011;2294;51.818;8.484;2023-12-07T08:48:24;34.60;;;17.17;;
4563;SDS011;2294;51.818;8.484;2023-12-07T08:50:51;35.43;;;17.70;;
4563;SDS011;2294;51.818;8.484;2023-12-07T08:53:18;33.33;;;16.97;;
4563;SDS011;2294;51.818;8.484;2023-12-07T08:55:45;43.37;;;16.73;;
4563;SDS011;2294;51.818;8.484;2023-12-07T08:58:12;39.33;;;18.33;;
4563;SDS011;2294;51.818;8.484;2023-12-07T09:00:40;41.93;;;16.97;;
4563;SDS011;2294;51.818;8.484;2023-12-07T09:03:08;42.13;;;20.00;;
4563;SDS011;2294;51.818;8.484;2023-12-07T09:05:35;39.07;;;16.50;;
4563;SDS011;2294;51.818;8.484;2023-12-07T09:08:03;34.67;;;17.60;;
4563;SDS011;2294;51.818;8.484;2023-12-07T09:10:30;40.17;;;17.60;;
4563;SDS011;2294;51.818;8.484;2023-12-07T09:12:57;38.40;;;16.80;;
4563;SDS011;2294;51.818;8.484;2023-12-07T09:15:24;37.90;;;17.77;;
4563;SDS011;2294;51.818;8.484;2023-12-07T09:17:52;38.53;;;17.27;;
4563;SDS011;2294;51.818;8.484;2023-12-07T09:20:20;37.87;;;16.33;;
4563;SDS011;2294;51.818;8.484;2023-12-07T09:22:47;38.73;;;17.40;;
4563;SDS011;2294;51.818;8.484;2023-12-07T09:25:15;39.13;;;17.97;;
4563;SDS011;2294;51.818;8.484;2023-12-07T09:27:42;34.13;;;15.70;;
4563;SDS011;2294;51.818;8.484;2023-12-07T09:30:10;39.57;;;18.10;;
4563;SDS011;2294;51.818;8.484;2023-12-07T09:32:37;47.50;;;17.67;;
4563;SDS011;2294;51.818;8.484;2023-12-07T09:35:04;36.70;;;16.60;;
4563;SDS011;2294;51.818;8.484;2023-12-07T09:37:33;40.77;;;19.63;;
4563;SDS011;2294;51.818;8.484;2023-12-07T09:40:01;40.07;;;19.23;;
4563;SDS011;2294;51.818;8.484;2023-12-07T09:42:30;42.00;;;17.80;;
4563;SDS011;2294;51.818;8.484;2023-12-07T09:44:58;40.70;;;18.70;;
4563;SDS011;2294;51.818;8.484;2023-12-07T09:47:25;42.10;;;17.80;;
4563;SDS011;2294;51.818;8.484;2023-12-07T09:49:53;47.20;;;20.13;;
4563;SDS011;2294;51.818;8.484;2023-12-07T09:52:20;55.00;;;26.40;;
4563;SDS011;2294;51.818;8.484;2023-12-07T09:54:49;35.10;;;17.87;;
4563;SDS011;2294;51.818;8.484;2023-12-07T09:57:17;42.40;;;17.67;;
4563;SDS011;2294;51.818;8.484;2023-12-07T09:59:44;36.93;;;15.73;;
4563;SDS011;2294;51.818;8.484;2023-12-07T10:02:12;48.23;;;19.40;;
4563;SDS011;2294;51.818;8.484;2023-12-07T10:04:40;40.40;;;17.80;;
4563;SDS011;2294;51.818;8.484;2023-12-07T10:07:07;38.70;;;16.60;;
4563;SDS011;2294;51.818;8.484;2023-12-07T10:09:36;40.73;;;19.23;;
4563;SDS011;2294;51.818;8.484;2023-12-07T10:12:06;40.33;;;17.23;;
4563;SDS011;2294;51.818;8.484;2023-12-07T10:14:34;44.63;;;20.20;;
4563;SDS011;2294;51.818;8.484;2023-12-07T10:17:01;47.00;;;21.00;;
4563;SDS011;2294;51.818;8.484;2023-12-07T10:19:29;38.10;;;18.80;;
4563;SDS011;2294;51.818;8.484;2023-12-07T10:21:56;36.73;;;18.70;;
4563;SDS011;2294;51.818;8.484;2023-12-07T10:24:24;39.17;;;18.83;;
4563;SDS011;2294;51.818;8.484;2023-12-07T10:26:52;39.87;;;18.27;;
4563;SDS011;2294;51.818;8.484;2023-12-07T10:29:23;40.37;;;19.70;;
4563;SDS011;2294;51.818;8.484;2023-12-07T10:31:51;43.00;;;18.30;;
4563;SDS011;2294;51.818;8.484;2023-12-07T10:34:18;29.83;;;15.37;;
4563;SDS011;2294;51.818;8.484;2023-12-07T10:36:46;35.40;;;16.67;;
4563;SDS011;2294;51.818;8.484;2023-12-07T10:39:14;34.90;;;17.37;;
4563;SDS011;2294;51.818;8.484;2023-12-07T10:41:42;36.70;;;16.90;;
4563;SDS011;2294;51.818;8.484;2023-12-07T10:44:11;34.17;;;16.77;;
4563;SDS011;2294;51.818;8.484;2023-12-07T10:46:42;35.63;;;16.33;;
4563;SDS011;2294;51.818;8.484;2023-12-07T10:49:11;38.27;;;16.10;;
4563;SDS011;2294;51.818;8.484;2023-12-07T10:51:41;35.53;;;17.57;;
4563;SDS011;2294;51.818;8.484;2023-12-07T10:54:08;30.20;;;15.73;;
4563;SDS011;2294;51.818;8.484;2023-12-07T10:56:38;34.23;;;16.00;;
4563;SDS011;2294;51.818;8.484;2023-12-07T10:59:07;31.93;;;15.87;;
4563;SDS011;2294;51.818;8.484;2023-12-07T11:01:36;41.40;;;19.00;;
4563;SDS011;2294;51.818;8.484;2023-12-07T11:04:05;32.87;;;17.77;;
4563;SDS011;2294;51.818;8.484;2023-12-07T11:06:33;40.67;;;17.90;;
4563;SDS011;2294;51.818;8.484;2023-12-07T11:09:02;29.37;;;15.00;;
4563;SDS011;2294;51.818;8.484;2023-12-07T11:11:31;40.30;;;17.80;;
4563;SDS011;2294;51.818;8.484;2023-12-07T11:14:02;30.23;;;15.70;;
4563;SDS011;2294;51.818;8.484;2023-12-07T11:16:30;31.90;;;15.67;;
4563;SDS011;2294;51.818;8.484;2023-12-07T11:18:58;25.77;;;14.77;;
4563;SDS011;2294;51.818;8.484;2023-12-07T11:21:26;33.47;;;16.27;;
4563;SDS011;2294;51.818;8.484;2023-12-07T11:23:54;29.87;;;15.27;;
4563;SDS011;2294;51.818;8.484;2023-12-07T11:26:22;33.90;;;17.50;;
4563;SDS011;2294;51.818;8.484;2023-12-07T11:28:49;35.87;;;16.10;;
4563;SDS011;2294;51.818;8.484;2023-12-07T11:31:17;35.97;;;16.80;;
4563;SDS011;2294;51.818;8.484;2023-12-07T11:33:44;36.07;;;16.10;;
4563;SDS011;2294;51.818;8.484;2023-12-07T11:36:13;36.60;;;16.63;;
4563;SDS011;2294;51.818;8.484;2023-12-07T11:41:34;31.27;;;16.57;;
4563;SDS011;2294;51.818;8.484;2023-12-07T11:44:01;33.00;;;17.10;;
4563;SDS011;2294;51.818;8.484;2023-12-07T11:46:29;32.87;;;17.20;;
4563;SDS011;2294;51.818;8.484;2023-12-07T11:48:56;36.80;;;17.23;;
4563;SDS011;2294;51.818;8.484;2023-12-07T11:51:24;34.13;;;14.90;;
4563;SDS011;2294;51.818;8.484;2023-12-07T11:53:51;36.83;;;17.83;;
4563;SDS011;2294;51.818;8.484;2023-12-07T11:56:19;36.57;;;17.17;;
4563;SDS011;2294;51.818;8.484;2023-12-07T11:58:48;34.23;;;17.27;;
4563;SDS011;2294;51.818;8.484;2023-12-07T12:01:16;38.13;;;17.87;;
4563;SDS011;2294;51.818;8.484;2023-12-07T12:03:43;31.77;;;17.67;;
4563;SDS011;2294;51.818;8.484;2023-12-07T12:06:10;36.10;;;17.17;;
4563;SDS011;2294;51.818;8.484;2023-12-07T12:08:39;35.53;;;17.27;;
4563;SDS011;2294;51.818;8.484;2023-12-07T12:11:07;32.03;;;16.90;;
4563;SDS011;2294;51.818;8.484;2023-12-07T12:13:35;31.30;;;16.70;;
4563;SDS011;2294;51.818;8.484;2023-12-07T12:16:04;36.03;;;17.90;;
4563;SDS011;2294;51.818;8.484;2023-12-07T12:18:32;29.07;;;16.20;;
4563;SDS011;2294;51.818;8.484;2023-12-07T12:20:59;32.23;;;15.77;;
4563;SDS011;2294;51.818;8.484;2023-12-07T12:23:26;31.43;;;14.70;;
4563;SDS011;2294;51.818;8.484;2023-12-07T12:25:54;24.33;;;13.90;;
4563;SDS011;2294;51.818;8.484;2023-12-07T12:28:22;28.53;;;14.63;;
4563;SDS011;2294;51.818;8.484;2023-12-07T12:30:49;22.30;;;13.33;;
4563;SDS011;2294;51.818;8.484;2023-12-07T12:33:19;23.73;;;13.10;;
4563;SDS011;2294;51.818;8.484;2023-12-07T12:35:46;29.90;;;14.90;;
4563;SDS011;2294;51.818;8.484;2023-12-07T12:38:13;25.27;;;12.07;;
4563;SDS011;2294;51.818;8.484;2023-12-07T12:40:40;24.63;;;13.03;;
4563;SDS011;2294;51.818;8.484;2023-12-07T12:43:07;24.30;;;13.60;;
4563;SDS011;2294;51.818;8.484;2023-12-07T12:45:36;26.07;;;13.13;;
4563;SDS011;2294;51.818;8.484;2023-12-07T12:48:03;35.67;;;15.40;;
4563;SDS011;2294;51.818;8.484;2023-12-07T12:50:34;23.60;;;14.60;;
4563;SDS011;2294;51.818;8.484;2023-12-07T12:53:02;28.97;;;15.37;;
4563;SDS011;2294;51.818;8.484;2023-12-07T12:55:30;26.07;;;14.20;;
4563;SDS011;2294;51.818;8.484;2023-12-07T12:57:58;24.67;;;13.67;;
4563;SDS011;2294;51.818;8.484;2023-12-07T13:00:25;26.70;;;13.00;;
4563;SDS011;2294;51.818;8.484;2023-12-07T13:02:52;22.00;;;12.60;;
4563;SDS011;2294;51.818;8.484;2023-12-07T13:05:20;22.23;;;12.10;;
4563;SDS011;2294;51.818;8.484;2023-12-07T13:07:49;20.07;;;11.50;;
4563;SDS011;2294;51.818;8.484;2023-12-07T13:10:16;21.50;;;11.97;;
4563;SDS011;2294;51.818;8.484;2023-12-07T13:12:44;20.80;;;11.00;;
4563;SDS011;2294;51.818;8.484;2023-12-07T13:15:11;19.53;;;12.40;;
4563;SDS011;2294;51.818;8.484;2023-12-07T13:17:39;24.43;;;13.00;;
4563;SDS011;2294;51.818;8.484;2023-12-07T13:20:06;19.40;;;11.70;;
4563;SDS011;2294;51.818;8.484;2023-12-07T13:22:35;20.27;;;11.87;;
4563;SDS011;2294;51.818;8.484;2023-12-07T13:25:04;17.03;;;9.87;;
4563;SDS011;2294;51.818;8.484;2023-12-07T13:27:32;15.97;;;9.97;;
4563;SDS011;2294;51.818;8.484;2023-12-07T13:29:59;13.93;;;9.13;;
4563;SDS011;2294;51.818;8.484;2023-12-07T13:32:26;14.27;;;8.00;;
4563;SDS011;2294;51.818;8.484;2023-12-07T13:34:53;14.10;;;8.50;;
4563;SDS011;2294;51.818;8.484;2023-12-07T13:37:20;13.07;;;8.33;;
4563;SDS011;2294;51.818;8.484;2023-12-07T13:39:48;14.13;;;8.63;;
4563;SDS011;2294;51.818;8.484;2023-12-07T13:42:19;13.70;;;7.53;;
4563;SDS011;2294;51.818;8.484;2023-12-07T13:44:46;10.83;;;7.40;;
4563;SDS011;2294;51.818;8.484;2023-12-07T13:47:17;18.57;;;9.20;;
4563;SDS011;2294;51.818;8.484;2023-12-07T13:49:45;12.50;;;7.20;;
4563;SDS011;2294;51.818;8.484;2023-12-07T13:52:14;16.63;;;7.73;;
4563;SDS011;2294;51.818;8.484;2023-12-07T13:54:42;20.13;;;8.40;;
4563;SDS011;2294;51.818;8.484;2023-12-07T13:57:10;12.60;;;8.10;;
4563;SDS011;2294;51.818;8.484;2023-12-07T13:59:39;12.33;;;6.57;;
4563;SDS011;2294;51.818;8.484;2023-12-07T14:02:06;12.90;;;8.60;;
4563;SDS011;2294;51.818;8.484;2023-12-07T14:04:33;11.77;;;7.50;;
4563;SDS011;2294;51.818;8.484;2023-12-07T14:07:07;12.27;;;7.20;;
4563;SDS011;2294;51.818;8.484;2023-12-07T14:09:35;12.40;;;6.80;;
4563;SDS011;2294;51.818;8.484;2023-12-07T14:12:02;18.43;;;6.90;;
4563;SDS011;2294;51.818;8.484;2023-12-07T14:14:30;17.83;;;7.77;;
4563;SDS011;2294;51.818;8.484;2023-12-07T14:16:58;15.77;;;8.03;;
4563;SDS011;2294;51.818;8.484;2023-12-07T14:19:25;10.97;;;7.07;;
4563;SDS011;2294;51.818;8.484;2023-12-07T14:21:53;15.77;;;8.60;;
4563;SDS011;2294;51.818;8.484;2023-12-07T14:24:22;12.97;;;7.27;;
4563;SDS011;2294;51.818;8.484;2023-12-07T14:26:52;17.10;;;8.67;;
4563;SDS011;2294;51.818;8.484;2023-12-07T14:29:19;11.50;;;7.00;;
4563;SDS011;2294;51.818;8.484;2023-12-07T14:31:48;15.70;;;8.10;;
4563;SDS011;2294;51.818;8.484;2023-12-07T14:34:16;12.37;;;7.87;;
4563;SDS011;2294;51.818;8.484;2023-12-07T14:36:45;13.90;;;8.67;;
4563;SDS011;2294;51.818;8.484;2023-12-07T14:39:12;11.60;;;6.87;;
4563;SDS011;2294;51.818;8.484;2023-12-07T14:41:42;16.83;;;7.70;;
4563;SDS011;2294;51.818;8.484;2023-12-07T14:44:09;11.70;;;6.73;;
4563;SDS011;2294;51.818;8.484;2023-12-07T14:46:37;12.17;;;8.27;;
4563;SDS011;2294;51.818;8.484;2023-12-07T14:49:04;14.30;;;8.63;;
4563;SDS011;2294;51.818;8.484;2023-12-07T14:51:32;11.00;;;7.57;;
4563;SDS011;2294;51.818;8.484;2023-12-07T14:54:00;18.23;;;9.40;;